Time;durP1;ratioP1;P1;durP2;ratioP2;P2;SDS_P1;SDS_P2;PMS_P1;PMS_P2;Temp;Humidity;BMP_temperature;BMP_pressure;BME280_temperature;BME280_humidity;BME280_pressure;Samples;Min_cycle;Max_cycle;Signal;HPM_P1;HPM_P2
2021/12/06 00:00:42;;;;;;;0.30;0.30;;;;;;;;;;1863616;75;27216;-34
2021/12/06 00:03:11;;;;;;;2.27;0.40;;;;;;;;;;1868908;75;26378;-34
2021/12/06 00:05:38;;;;;;;1.07;0.53;;;;;;;;;;1868023;75;26867;-33
2021/12/06 00:08:06;;;;;;;0.57;0.40;;;;;;;;;;1863864;76;26331;-34
2021/12/06 00:10:34;;;;;;;0.30;0.30;;;;;;;;;;1855899;75;26286;-34
2021/12/06 00:13:01;;;;;;;0.37;0.37;;;;;;;;;;1861226;76;25462;-34
2021/12/06 00:15:32;;;;;;;0.40;0.40;;;;;;;;;;1836254;76;26273;-34
2021/12/06 00:17:58;;;;;;;0.62;0.40;;;;;;;;;;1841408;76;26267;-34
2021/12/06 00:20:25;;;;;;;1.22;0.40;;;;;;;;;;1845317;76;26707;-33
2021/12/06 00:22:53;;;;;;;0.50;0.50;;;;;;;;;;1852417;76;26242;-34
2021/12/06 00:25:21;;;;;;;0.40;0.40;;;;;;;;;;1849345;76;26272;-34
2021/12/06 00:27:49;;;;;;;0.50;0.50;;;;;;;;;;1845371;76;26766;-34
2021/12/06 00:30:17;;;;;;;0.40;0.40;;;;;;;;;;1832149;76;26343;-34
2021/12/06 00:32:45;;;;;;;0.40;0.40;;;;;;;;;;1853455;76;26354;-33
2021/12/06 00:35:19;;;;;;;0.35;0.35;;;;;;;;;;1835880;76;26367;-34
2021/12/06 00:37:53;;;;;;;0.40;0.40;;;;;;;;;;1844193;76;26402;-34
2021/12/06 00:40:12;;;;;;;0.62;0.47;;;;;;;;;;1852883;76;26267;-33
2021/12/06 00:42:39;;;;;;;0.50;0.40;;;;;;;;;;1849121;76;26234;-34
2021/12/06 00:45:08;;;;;;;0.40;0.40;;;;;;;;;;1856506;76;26529;-35
2021/12/06 00:47:35;;;;;;;0.33;0.33;;;;;;;;;;1852960;76;26315;-33
2021/12/06 00:50:04;;;;;;;0.28;0.28;;;;;;;;;;1855802;76;26324;-34
2021/12/06 00:52:31;;;;;;;0.40;0.40;;;;;;;;;;1859884;76;26249;-34
2021/12/06 00:54:59;;;;;;;0.40;0.40;;;;;;;;;;1855121;76;26632;-33
2021/12/06 00:57:26;;;;;;;0.47;0.47;;;;;;;;;;1854060;76;26262;-34
2021/12/06 00:59:53;;;;;;;0.40;0.40;;;;;;;;;;1854684;76;26274;-34
2021/12/06 01:02:21;;;;;;;0.40;0.40;;;;;;;;;;1834646;76;27216;-34
2021/12/06 01:04:49;;;;;;;0.40;0.40;;;;;;;;;;1845590;75;26320;-34
2021/12/06 01:07:17;;;;;;;0.40;0.40;;;;;;;;;;1847577;76;26729;-33
2021/12/06 01:09:44;;;;;;;0.33;0.33;;;;;;;;;;1857204;76;26296;-34
2021/12/06 01:12:11;;;;;;;0.33;0.33;;;;;;;;;;1853012;76;26799;-34
2021/12/06 01:14:39;;;;;;;2.22;0.40;;;;;;;;;;1852242;76;26321;-34
2021/12/06 01:17:07;;;;;;;0.50;0.50;;;;;;;;;;1843706;76;26364;-34
2021/12/06 01:19:36;;;;;;;0.40;0.40;;;;;;;;;;1856156;76;26717;-34
2021/12/06 01:22:17;;;;;;;0.40;0.40;;;;;;;;;;1841765;76;26800;-34
2021/12/06 01:24:41;;;;;;;0.40;0.40;;;;;;;;;;1851446;76;26340;-33
2021/12/06 01:27:15;;;;;;;0.30;0.30;;;;;;;;;;1842006;76;26343;-34
2021/12/06 01:32:36;;;;;;;0.30;0.30;;;;;;;;;;1847288;76;26365;-34
2021/12/06 01:40:10;;;;;;;0.30;0.30;;;;;;;;;;1858288;76;26262;-34
2021/12/06 01:42:37;;;;;;;0.35;0.35;;;;;;;;;;1855237;76;26662;-34
2021/12/06 01:45:05;;;;;;;0.40;0.40;;;;;;;;;;1853360;76;26304;-34
2021/12/06 01:47:37;;;;;;;0.20;0.20;;;;;;;;;;1853804;76;26802;-33
2021/12/06 01:50:06;;;;;;;0.37;0.37;;;;;;;;;;1850498;76;26250;-33
2021/12/06 01:52:38;;;;;;;0.75;0.37;;;;;;;;;;1846929;76;26333;-33
2021/12/06 01:55:07;;;;;;;0.40;0.40;;;;;;;;;;1851914;76;26330;-34
2021/12/06 01:57:35;;;;;;;0.53;0.53;;;;;;;;;;1850632;76;26326;-34
2021/12/06 02:00:03;;;;;;;0.20;0.20;;;;;;;;;;1845439;76;26326;-34
2021/12/06 02:02:31;;;;;;;0.50;0.50;;;;;;;;;;1843159;76;26217;-34
2021/12/06 02:04:58;;;;;;;0.40;0.40;;;;;;;;;;1843921;76;27002;-33
2021/12/06 02:07:26;;;;;;;0.40;0.40;;;;;;;;;;1842930;76;26291;-34
2021/12/06 02:09:55;;;;;;;0.45;0.45;;;;;;;;;;1849549;76;26636;-34
2021/12/06 02:12:26;;;;;;;0.35;0.35;;;;;;;;;;1848320;76;26797;-34
2021/12/06 02:15:02;;;;;;;0.33;0.33;;;;;;;;;;1861104;76;26336;-34
2021/12/06 02:17:29;;;;;;;0.40;0.40;;;;;;;;;;1860917;76;26329;-34
2021/12/06 02:19:58;;;;;;;0.30;0.30;;;;;;;;;;1858278;76;26351;-33
2021/12/06 02:22:25;;;;;;;0.40;0.40;;;;;;;;;;1868089;76;26890;-34
2021/12/06 02:24:53;;;;;;;0.35;0.35;;;;;;;;;;1855569;76;26619;-34
2021/12/06 02:27:22;;;;;;;0.40;0.40;;;;;;;;;;1859959;76;26273;-33
2021/12/06 02:29:50;;;;;;;0.40;0.40;;;;;;;;;;1850007;76;26281;-34
2021/12/06 02:32:18;;;;;;;0.40;0.40;;;;;;;;;;1861389;76;26878;-34
2021/12/06 02:34:47;;;;;;;0.40;0.40;;;;;;;;;;1855326;76;26316;-33
2021/12/06 02:37:15;;;;;;;1.45;0.30;;;;;;;;;;1864021;76;26277;-33
2021/12/06 02:39:43;;;;;;;0.40;0.40;;;;;;;;;;1863859;76;26320;-33
2021/12/06 02:42:14;;;;;;;0.33;0.33;;;;;;;;;;1861374;76;26320;-34
2021/12/06 02:44:42;;;;;;;0.45;0.45;;;;;;;;;;1860682;76;26595;-34
2021/12/06 02:47:09;;;;;;;0.50;0.50;;;;;;;;;;1872737;76;26269;-34
2021/12/06 02:49:37;;;;;;;0.28;0.28;;;;;;;;;;1866114;76;26730;-34
2021/12/06 02:52:06;;;;;;;0.40;0.40;;;;;;;;;;1852209;76;26276;-34
2021/12/06 02:54:34;;;;;;;0.30;0.30;;;;;;;;;;1847888;76;26773;-34
2021/12/06 02:57:20;;;;;;;0.80;0.50;;;;;;;;;;1863124;76;26756;-34
2021/12/06 02:59:37;;;;;;;0.40;0.40;;;;;;;;;;1853840;76;26297;-33
2021/12/06 03:02:05;;;;;;;0.30;0.30;;;;;;;;;;1851304;76;26262;-34
2021/12/06 03:04:34;;;;;;;0.33;0.33;;;;;;;;;;1860561;76;26300;-34
2021/12/06 03:07:02;;;;;;;0.40;0.40;;;;;;;;;;1864269;76;26286;-33
2021/12/06 03:09:33;;;;;;;1.22;0.30;;;;;;;;;;1863220;76;26344;-33
2021/12/06 03:12:04;;;;;;;0.23;0.23;;;;;;;;;;1847874;76;26325;-34
2021/12/06 03:14:36;;;;;;;0.20;0.20;;;;;;;;;;1848634;76;26374;-33
2021/12/06 03:17:04;;;;;;;0.40;0.40;;;;;;;;;;1841638;76;26208;-33
2021/12/06 03:19:32;;;;;;;0.30;0.30;;;;;;;;;;1855992;76;27482;-34
2021/12/06 03:21:59;;;;;;;0.40;0.40;;;;;;;;;;1853891;76;26257;-34
2021/12/06 03:24:26;;;;;;;0.30;0.30;;;;;;;;;;1848292;76;25883;-33
2021/12/06 03:26:54;;;;;;;0.47;0.37;;;;;;;;;;1851931;76;26370;-33
2021/12/06 03:29:21;;;;;;;0.45;0.45;;;;;;;;;;1865195;76;26277;-34
2021/12/06 03:31:49;;;;;;;0.33;0.33;;;;;;;;;;1850590;76;26774;-33
2021/12/06 03:34:17;;;;;;;0.40;0.40;;;;;;;;;;1845692;76;26286;-34
2021/12/06 03:36:45;;;;;;;0.33;0.33;;;;;;;;;;1847499;76;26252;-33
2021/12/06 03:39:20;;;;;;;0.42;0.40;;;;;;;;;;1847475;76;26335;-33
2021/12/06 03:41:47;;;;;;;0.40;0.40;;;;;;;;;;1852111;76;26316;-34
2021/12/06 03:44:14;;;;;;;0.30;0.30;;;;;;;;;;1852939;76;26280;-34
2021/12/06 03:46:42;;;;;;;0.35;0.35;;;;;;;;;;1857457;76;26237;-34
2021/12/06 03:49:13;;;;;;;0.37;0.37;;;;;;;;;;1854097;76;26272;-33
2021/12/06 03:51:41;;;;;;;0.40;0.40;;;;;;;;;;1863669;76;26696;-34
2021/12/06 03:54:09;;;;;;;0.40;0.40;;;;;;;;;;1852148;76;26307;-33
2021/12/06 03:56:39;;;;;;;0.57;0.35;;;;;;;;;;1845057;76;26274;-34
2021/12/06 03:59:07;;;;;;;0.30;0.30;;;;;;;;;;1839702;76;26751;-33
2021/12/06 04:01:34;;;;;;;0.30;0.30;;;;;;;;;;1849022;76;26323;-34
2021/12/06 04:04:03;;;;;;;0.23;0.23;;;;;;;;;;1851417;76;26870;-34
2021/12/06 04:06:30;;;;;;;0.30;0.30;;;;;;;;;;1849407;76;26335;-33
2021/12/06 04:08:58;;;;;;;0.50;0.50;;;;;;;;;;1858299;76;26206;-34
2021/12/06 04:11:26;;;;;;;0.40;0.40;;;;;;;;;;1849715;76;26246;-34
2021/12/06 04:13:53;;;;;;;0.33;0.33;;;;;;;;;;1855485;76;26285;-34
2021/12/06 04:16:20;;;;;;;0.40;0.40;;;;;;;;;;1860280;76;26269;-33
2021/12/06 04:18:49;;;;;;;0.55;0.40;;;;;;;;;;1853602;76;26273;-34
2021/12/06 04:21:18;;;;;;;0.88;0.40;;;;;;;;;;1848222;76;26367;-32
2021/12/06 04:23:45;;;;;;;0.40;0.40;;;;;;;;;;1857312;76;26859;-34
2021/12/06 04:26:13;;;;;;;0.30;0.30;;;;;;;;;;1849626;76;26840;-34
2021/12/06 04:28:47;;;;;;;1.00;0.50;;;;;;;;;;1854814;76;26276;-34
2021/12/06 04:31:10;;;;;;;0.35;0.35;;;;;;;;;;1853888;76;26892;-34
2021/12/06 04:33:37;;;;;;;0.40;0.40;;;;;;;;;;1862902;76;26199;-33
2021/12/06 04:36:05;;;;;;;1.52;0.40;;;;;;;;;;1856689;76;26376;-34
2021/12/06 04:38:32;;;;;;;0.40;0.40;;;;;;;;;;1865575;76;26718;-33
2021/12/06 04:41:00;;;;;;;0.80;0.35;;;;;;;;;;1859970;76;26253;-34
2021/12/06 04:43:27;;;;;;;0.47;0.47;;;;;;;;;;1859230;76;26269;-34
2021/12/06 04:45:54;;;;;;;2.72;0.40;;;;;;;;;;1855516;76;26823;-34
2021/12/06 04:48:22;;;;;;;0.53;0.40;;;;;;;;;;1864172;76;26579;-34
2021/12/06 04:50:49;;;;;;;1.37;0.47;;;;;;;;;;1859370;76;26749;-33
2021/12/06 04:53:18;;;;;;;2.95;0.55;;;;;;;;;;1859428;76;26354;-34
2021/12/06 04:55:47;;;;;;;1.27;0.55;;;;;;;;;;1855267;76;26346;-34
2021/12/06 04:58:15;;;;;;;1.55;0.50;;;;;;;;;;1862885;76;26265;-34
2021/12/06 05:00:50;;;;;;;2.33;0.57;;;;;;;;;;1861661;76;26245;-34
2021/12/06 05:03:18;;;;;;;0.75;0.35;;;;;;;;;;1864510;76;26669;-34
2021/12/06 05:05:47;;;;;;;1.10;0.45;;;;;;;;;;1869028;76;26310;-34
2021/12/06 05:08:16;;;;;;;1.35;0.57;;;;;;;;;;1848344;76;26296;-34
2021/12/06 05:10:43;;;;;;;1.07;0.50;;;;;;;;;;1858087;76;26405;-33
2021/12/06 05:13:11;;;;;;;0.85;0.50;;;;;;;;;;1846976;76;26324;-34
2021/12/06 05:15:38;;;;;;;0.50;0.42;;;;;;;;;;1851527;76;26298;-34
2021/12/06 05:18:06;;;;;;;0.40;0.40;;;;;;;;;;1849596;76;26725;-34
2021/12/06 05:20:34;;;;;;;3.85;0.50;;;;;;;;;;1850932;76;26368;-34
2021/12/06 05:23:03;;;;;;;0.80;0.57;;;;;;;;;;1848826;76;26254;-34
2021/12/06 05:25:30;;;;;;;2.67;0.50;;;;;;;;;;1854016;76;26343;-34
2021/12/06 05:27:59;;;;;;;1.62;0.68;;;;;;;;;;1846060;76;26289;-34
2021/12/06 05:30:27;;;;;;;2.05;0.80;;;;;;;;;;1849898;76;26290;-33
2021/12/06 05:32:58;;;;;;;3.22;0.90;;;;;;;;;;1849411;76;26300;-33
2021/12/06 05:35:24;;;;;;;3.15;0.70;;;;;;;;;;1855856;76;26368;-34
2021/12/06 05:37:55;;;;;;;2.40;0.62;;;;;;;;;;1850465;76;26262;-34
2021/12/06 05:40:24;;;;;;;2.65;0.62;;;;;;;;;;1853804;76;26896;-33
2021/12/06 05:42:52;;;;;;;5.55;0.60;;;;;;;;;;1846656;76;26281;-34
2021/12/06 05:45:21;;;;;;;4.12;1.00;;;;;;;;;;1850504;76;26269;-34
2021/12/06 05:47:48;;;;;;;3.00;0.60;;;;;;;;;;1854495;76;26911;-34
2021/12/06 05:50:16;;;;;;;4.97;0.70;;;;;;;;;;1850745;76;26347;-33
2021/12/06 05:52:45;;;;;;;2.60;0.68;;;;;;;;;;1853841;76;26638;-34
2021/12/06 05:55:13;;;;;;;0.82;0.42;;;;;;;;;;1846799;76;26923;-34
2021/12/06 05:57:41;;;;;;;2.92;0.65;;;;;;;;;;1852144;76;26327;-34
2021/12/06 06:00:10;;;;;;;2.70;0.62;;;;;;;;;;1844967;76;26274;-33
2021/12/06 06:02:38;;;;;;;3.47;0.60;;;;;;;;;;1842047;76;26293;-33
2021/12/06 06:05:06;;;;;;;2.20;0.53;;;;;;;;;;1854375;76;26314;-34
2021/12/06 06:07:33;;;;;;;1.77;0.53;;;;;;;;;;1859586;76;26683;-34
2021/12/06 06:10:01;;;;;;;2.00;0.68;;;;;;;;;;1849226;76;26266;-34
2021/12/06 06:12:28;;;;;;;3.58;0.70;;;;;;;;;;1861970;76;26255;-33
2021/12/06 06:14:55;;;;;;;2.25;0.62;;;;;;;;;;1847937;76;26344;-33
2021/12/06 06:17:23;;;;;;;1.47;0.57;;;;;;;;;;1838597;76;26360;-33
2021/12/06 06:19:52;;;;;;;2.15;0.60;;;;;;;;;;1841095;76;27266;-34
2021/12/06 06:22:20;;;;;;;1.37;0.53;;;;;;;;;;1839518;76;26340;-34
2021/12/06 06:24:47;;;;;;;1.77;0.40;;;;;;;;;;1846472;76;26623;-34
2021/12/06 06:27:15;;;;;;;5.60;0.72;;;;;;;;;;1852524;76;26288;-33
2021/12/06 06:29:42;;;;;;;1.40;0.50;;;;;;;;;;1850564;76;26613;-33
2021/12/06 06:32:10;;;;;;;0.50;0.50;;;;;;;;;;1846077;76;26271;-34
2021/12/06 06:34:37;;;;;;;0.70;0.42;;;;;;;;;;1843087;76;26297;-34
2021/12/06 06:37:05;;;;;;;1.25;0.60;;;;;;;;;;1843703;76;26211;-34
2021/12/06 06:39:32;;;;;;;2.45;0.70;;;;;;;;;;1841650;76;26255;-34
2021/12/06 06:41:59;;;;;;;2.20;0.60;;;;;;;;;;1842981;76;26861;-34
2021/12/06 06:44:26;;;;;;;3.37;0.88;;;;;;;;;;1843664;76;26289;-32
2021/12/06 06:46:54;;;;;;;5.12;0.70;;;;;;;;;;1854568;76;26411;-32
2021/12/06 06:49:22;;;;;;;5.15;0.93;;;;;;;;;;1854352;76;26582;-33
2021/12/06 06:51:49;;;;;;;2.17;0.60;;;;;;;;;;1837309;76;26847;-32
2021/12/06 06:54:17;;;;;;;0.60;0.60;;;;;;;;;;1837062;76;26285;-32
2021/12/06 06:56:44;;;;;;;1.55;0.70;;;;;;;;;;1858500;76;26783;-32
2021/12/06 06:59:11;;;;;;;0.60;0.60;;;;;;;;;;1850741;76;26615;-31
2021/12/06 07:01:39;;;;;;;2.00;0.70;;;;;;;;;;1859006;76;26226;-31
2021/12/06 07:04:07;;;;;;;0.50;0.50;;;;;;;;;;1864198;75;26230;-32
2021/12/06 07:06:35;;;;;;;0.50;0.50;;;;;;;;;;1857215;76;26309;-34
2021/12/06 07:09:02;;;;;;;2.72;0.40;;;;;;;;;;1858650;76;26262;-36
2021/12/06 07:11:29;;;;;;;0.50;0.50;;;;;;;;;;1857206;76;26313;-32
2021/12/06 07:13:57;;;;;;;0.45;0.40;;;;;;;;;;1846268;76;26355;-34
2021/12/06 07:16:25;;;;;;;0.40;0.40;;;;;;;;;;1853025;76;26253;-31
2021/12/06 07:18:52;;;;;;;1.55;0.47;;;;;;;;;;1851546;76;26283;-32
2021/12/06 07:21:20;;;;;;;0.50;0.50;;;;;;;;;;1852406;76;26285;-32
2021/12/06 07:23:48;;;;;;;0.40;0.40;;;;;;;;;;1842684;76;26351;-32
2021/12/06 07:26:17;;;;;;;1.55;0.40;;;;;;;;;;1855455;76;26277;-32
2021/12/06 07:28:45;;;;;;;0.62;0.60;;;;;;;;;;1843229;76;26357;-31
2021/12/06 07:31:14;;;;;;;1.35;0.40;;;;;;;;;;1842640;76;26370;-31
2021/12/06 07:33:42;;;;;;;1.22;0.40;;;;;;;;;;1846678;76;26774;-33
2021/12/06 07:36:10;;;;;;;0.93;0.50;;;;;;;;;;1849858;76;26268;-35
2021/12/06 07:38:38;;;;;;;0.93;0.50;;;;;;;;;;1842574;76;26333;-32
2021/12/06 07:41:10;;;;;;;0.42;0.42;;;;;;;;;;1837534;76;27154;-32
2021/12/06 07:43:37;;;;;;;0.30;0.30;;;;;;;;;;1849743;76;26281;-32
2021/12/06 07:46:06;;;;;;;0.50;0.50;;;;;;;;;;1851369;76;26717;-33
2021/12/06 07:48:33;;;;;;;0.47;0.47;;;;;;;;;;1828663;76;26301;-32
2021/12/06 07:51:01;;;;;;;0.30;0.30;;;;;;;;;;1840088;76;26768;-32
2021/12/06 07:53:29;;;;;;;0.60;0.60;;;;;;;;;;1846725;76;26251;-35
2021/12/06 07:55:57;;;;;;;0.50;0.47;;;;;;;;;;1838778;76;26368;-33
2021/12/06 07:58:25;;;;;;;0.40;0.40;;;;;;;;;;1850014;76;26827;-32
2021/12/06 08:00:53;;;;;;;0.40;0.40;;;;;;;;;;1838164;76;26297;-34
2021/12/06 08:03:23;;;;;;;0.30;0.30;;;;;;;;;;1849330;76;26266;-32
2021/12/06 08:05:51;;;;;;;0.57;0.57;;;;;;;;;;1843129;76;26262;-32
2021/12/06 08:08:22;;;;;;;0.40;0.40;;;;;;;;;;1841244;76;26275;-31
2021/12/06 08:10:51;;;;;;;0.40;0.40;;;;;;;;;;1846080;76;26372;-34
2021/12/06 08:13:20;;;;;;;0.50;0.50;;;;;;;;;;1843584;76;26291;-35
2021/12/06 08:15:48;;;;;;;0.42;0.37;;;;;;;;;;1838768;76;26261;-33
2021/12/06 08:18:16;;;;;;;1.85;0.40;;;;;;;;;;1846216;76;26484;-34
2021/12/06 08:20:44;;;;;;;0.30;0.30;;;;;;;;;;1848773;76;26272;-32
2021/12/06 08:23:12;;;;;;;0.60;0.60;;;;;;;;;;1844374;76;26566;-33
2021/12/06 08:25:40;;;;;;;0.40;0.40;;;;;;;;;;1844559;76;26342;-33
2021/12/06 08:28:07;;;;;;;0.50;0.50;;;;;;;;;;1845378;76;26323;-36
2021/12/06 08:30:35;;;;;;;0.40;0.40;;;;;;;;;;1848559;76;26323;-33
2021/12/06 08:33:03;;;;;;;0.50;0.50;;;;;;;;;;1847164;76;26736;-36
2021/12/06 08:35:31;;;;;;;0.50;0.50;;;;;;;;;;1844639;76;26283;-32
2021/12/06 08:38:00;;;;;;;0.47;0.47;;;;;;;;;;1845862;76;26353;-36
2021/12/06 08:40:28;;;;;;;0.37;0.37;;;;;;;;;;1849700;76;26268;-32
2021/12/06 08:42:56;;;;;;;0.40;0.40;;;;;;;;;;1853383;76;26260;-32
2021/12/06 08:45:26;;;;;;;0.40;0.40;;;;;;;;;;1859377;76;26408;-39
2021/12/06 08:47:53;;;;;;;0.40;0.40;;;;;;;;;;1852998;76;26803;-33
2021/12/06 08:50:22;;;;;;;0.75;0.40;;;;;;;;;;1845612;76;26260;-33
2021/12/06 08:52:50;;;;;;;0.40;0.40;;;;;;;;;;1849888;76;26303;-31
2021/12/06 08:55:18;;;;;;;0.40;0.40;;;;;;;;;;1857609;76;27359;-32
2021/12/06 08:57:45;;;;;;;0.40;0.40;;;;;;;;;;1844386;76;26304;-31
2021/12/06 09:00:14;;;;;;;0.50;0.50;;;;;;;;;;1842910;76;26266;-35
2021/12/06 09:02:42;;;;;;;0.30;0.30;;;;;;;;;;1839205;76;26224;-31
2021/12/06 09:05:09;;;;;;;0.50;0.50;;;;;;;;;;1856703;76;26273;-33
2021/12/06 09:07:37;;;;;;;0.40;0.40;;;;;;;;;;1856211;76;26265;-31
2021/12/06 09:10:05;;;;;;;0.50;0.50;;;;;;;;;;1839254;76;26276;-31
2021/12/06 09:12:32;;;;;;;0.55;0.55;;;;;;;;;;1848490;76;28255;-31
2021/12/06 09:15:01;;;;;;;1.75;0.50;;;;;;;;;;1850847;76;26253;-32
2021/12/06 09:17:28;;;;;;;0.50;0.50;;;;;;;;;;1823198;76;38690;-32
2021/12/06 09:19:56;;;;;;;0.50;0.50;;;;;;;;;;1840325;76;26332;-34
2021/12/06 09:22:25;;;;;;;0.60;0.60;;;;;;;;;;1854062;76;26344;-31
2021/12/06 09:24:52;;;;;;;0.40;0.40;;;;;;;;;;1849584;76;26351;-36
2021/12/06 09:27:20;;;;;;;0.50;0.50;;;;;;;;;;1842446;76;28279;-32
2021/12/06 09:29:47;;;;;;;0.60;0.60;;;;;;;;;;1851732;76;26346;-36
2021/12/06 09:32:15;;;;;;;0.37;0.37;;;;;;;;;;1849644;76;26237;-32
2021/12/06 09:34:45;;;;;;;0.40;0.40;;;;;;;;;;1843283;76;26261;-31
2021/12/06 09:37:13;;;;;;;0.70;0.62;;;;;;;;;;1849465;76;26300;-30
2021/12/06 09:39:41;;;;;;;0.70;0.70;;;;;;;;;;1861908;76;26296;-35
2021/12/06 09:42:09;;;;;;;0.50;0.50;;;;;;;;;;1858181;76;26253;-32
2021/12/06 09:44:36;;;;;;;0.57;0.57;;;;;;;;;;1844348;76;26242;-31
2021/12/06 09:47:04;;;;;;;0.50;0.50;;;;;;;;;;1847923;76;26291;-34
2021/12/06 09:49:32;;;;;;;0.50;0.50;;;;;;;;;;1841732;76;26552;-32
2021/12/06 09:52:00;;;;;;;0.60;0.60;;;;;;;;;;1845581;76;26345;-34
2021/12/06 09:54:29;;;;;;;0.50;0.50;;;;;;;;;;1841004;76;26261;-34
2021/12/06 09:56:57;;;;;;;0.60;0.60;;;;;;;;;;1841707;76;28377;-40
2021/12/06 09:59:26;;;;;;;0.60;0.60;;;;;;;;;;1840587;76;28193;-30
2021/12/06 10:01:56;;;;;;;0.72;0.72;;;;;;;;;;1853154;76;26261;-31
2021/12/06 10:04:25;;;;;;;0.60;0.60;;;;;;;;;;1859969;75;26383;-30
2021/12/06 10:06:53;;;;;;;0.60;0.60;;;;;;;;;;1865269;76;26293;-30
2021/12/06 10:09:21;;;;;;;1.42;0.60;;;;;;;;;;1858650;76;26326;-35
2021/12/06 10:11:49;;;;;;;0.60;0.60;;;;;;;;;;1855209;76;27308;-32
2021/12/06 10:14:17;;;;;;;0.70;0.70;;;;;;;;;;1869162;76;26253;-33
2021/12/06 10:16:45;;;;;;;0.60;0.60;;;;;;;;;;1857553;76;26290;-32
2021/12/06 10:19:14;;;;;;;1.05;0.70;;;;;;;;;;1844407;76;26728;-33
2021/12/06 10:21:42;;;;;;;0.57;0.57;;;;;;;;;;1851093;76;26769;-32
2021/12/06 10:24:13;;;;;;;1.35;0.60;;;;;;;;;;1859101;76;26256;-32
2021/12/06 10:26:41;;;;;;;0.67;0.67;;;;;;;;;;1831350;76;28741;-33
2021/12/06 10:29:19;;;;;;;0.60;0.60;;;;;;;;;;1849547;76;26288;-31
2021/12/06 10:31:43;;;;;;;0.62;0.62;;;;;;;;;;1845616;76;26415;-33
2021/12/06 10:34:12;;;;;;;0.50;0.50;;;;;;;;;;1853512;76;26419;-36
2021/12/06 10:36:40;;;;;;;0.65;0.65;;;;;;;;;;1854270;76;28373;-32
2021/12/06 10:39:09;;;;;;;0.50;0.50;;;;;;;;;;1844167;76;26349;-33
2021/12/06 10:41:38;;;;;;;0.60;0.60;;;;;;;;;;1830798;76;38661;-33
2021/12/06 10:44:09;;;;;;;0.70;0.70;;;;;;;;;;1822405;76;28315;-35
2021/12/06 10:46:37;;;;;;;0.80;0.80;;;;;;;;;;1840692;76;26737;-34
2021/12/06 10:49:06;;;;;;;1.35;0.70;;;;;;;;;;1844340;76;26365;-34
2021/12/06 10:51:33;;;;;;;0.70;0.70;;;;;;;;;;1847864;76;26367;-32
2021/12/06 10:54:15;;;;;;;0.70;0.70;;;;;;;;;;1851643;76;26316;-34
2021/12/06 10:56:42;;;;;;;0.62;0.62;;;;;;;;;;1848222;76;26673;-32
2021/12/06 10:59:14;;;;;;;0.70;0.70;;;;;;;;;;1850663;76;26324;-32
2021/12/06 11:01:42;;;;;;;1.40;0.60;;;;;;;;;;1850323;76;26275;-32
2021/12/06 11:04:11;;;;;;;0.70;0.70;;;;;;;;;;1830935;76;28248;-29
2021/12/06 11:06:44;;;;;;;0.88;0.70;;;;;;;;;;1836910;76;27357;-29
2021/12/06 11:09:12;;;;;;;0.53;0.53;;;;;;;;;;1850350;76;26802;-30
2021/12/06 11:11:42;;;;;;;0.50;0.50;;;;;;;;;;1840500;76;26754;-29
2021/12/06 11:14:13;;;;;;;0.57;0.57;;;;;;;;;;1838550;76;26226;-34
2021/12/06 11:16:42;;;;;;;0.50;0.50;;;;;;;;;;1836508;76;26788;-31
2021/12/06 11:19:11;;;;;;;0.68;0.68;;;;;;;;;;1843697;76;26319;-31
2021/12/06 11:21:46;;;;;;;0.60;0.60;;;;;;;;;;1854145;76;26314;-32
2021/12/06 11:24:29;;;;;;;0.62;0.62;;;;;;;;;;1847735;76;26815;-30
2021/12/06 11:27:07;;;;;;;1.37;0.60;;;;;;;;;;1844254;76;26237;-31
2021/12/06 11:29:36;;;;;;;0.50;0.50;;;;;;;;;;1842535;76;26277;-31
2021/12/06 11:32:08;;;;;;;0.65;0.65;;;;;;;;;;1850390;76;26281;-33
2021/12/06 11:34:37;;;;;;;0.60;0.60;;;;;;;;;;1854165;76;26247;-35
2021/12/06 11:37:05;;;;;;;0.62;0.62;;;;;;;;;;1853160;76;26314;-35
2021/12/06 11:39:33;;;;;;;0.80;0.60;;;;;;;;;;1857030;76;26289;-32
2021/12/06 11:42:00;;;;;;;0.53;0.53;;;;;;;;;;1843676;76;26300;-32
2021/12/06 11:44:32;;;;;;;0.60;0.60;;;;;;;;;;1854235;76;26337;-32
2021/12/06 11:47:04;;;;;;;0.60;0.60;;;;;;;;;;1858577;76;25889;-32
2021/12/06 11:49:32;;;;;;;0.60;0.60;;;;;;;;;;1848309;76;26718;-32
2021/12/06 11:52:00;;;;;;;0.50;0.50;;;;;;;;;;1850171;76;26651;-32
2021/12/06 11:54:29;;;;;;;0.75;0.60;;;;;;;;;;1847499;76;26312;-32
2021/12/06 11:56:56;;;;;;;0.68;0.68;;;;;;;;;;1847173;76;26379;-32
2021/12/06 11:59:24;;;;;;;0.50;0.50;;;;;;;;;;1853676;76;26709;-32
2021/12/06 12:01:55;;;;;;;0.60;0.60;;;;;;;;;;1843295;76;26286;-33
2021/12/06 12:04:24;;;;;;;1.22;0.50;;;;;;;;;;1853350;76;26394;-32
2021/12/06 12:06:53;;;;;;;1.10;0.70;;;;;;;;;;1866840;76;26315;-32
2021/12/06 12:09:21;;;;;;;0.50;0.50;;;;;;;;;;1849608;76;26390;-32
2021/12/06 12:11:56;;;;;;;4.25;0.82;;;;;;;;;;1846831;76;26259;-33
2021/12/06 12:14:26;;;;;;;0.60;0.60;;;;;;;;;;1853272;76;26785;-32
2021/12/06 12:16:54;;;;;;;0.57;0.57;;;;;;;;;;1845328;76;26354;-35
2021/12/06 12:19:21;;;;;;;0.70;0.70;;;;;;;;;;1860194;76;26562;-32
2021/12/06 12:21:49;;;;;;;2.80;0.60;;;;;;;;;;1867802;75;26261;-32
2021/12/06 12:24:16;;;;;;;0.60;0.60;;;;;;;;;;1865655;75;26886;-33
2021/12/06 12:26:54;;;;;;;0.70;0.70;;;;;;;;;;1865141;76;26291;-32
2021/12/06 12:29:23;;;;;;;0.60;0.60;;;;;;;;;;1865387;76;26285;-33
2021/12/06 12:31:42;;;;;;;0.50;0.50;;;;;;;;;;1855521;75;26387;-32
2021/12/06 12:34:10;;;;;;;0.60;0.60;;;;;;;;;;1864668;76;26274;-34
2021/12/06 12:36:38;;;;;;;0.65;0.62;;;;;;;;;;1865495;75;26790;-33
2021/12/06 12:39:07;;;;;;;0.65;0.60;;;;;;;;;;1867691;75;26315;-34
2021/12/06 12:41:37;;;;;;;0.62;0.62;;;;;;;;;;1868876;75;26215;-32
2021/12/06 12:44:05;;;;;;;0.85;0.75;;;;;;;;;;1853255;75;26306;-35
2021/12/06 12:46:34;;;;;;;0.50;0.50;;;;;;;;;;1852114;76;26708;-32
2021/12/06 12:49:03;;;;;;;0.68;0.60;;;;;;;;;;1859990;76;26233;-33
2021/12/06 12:51:31;;;;;;;0.50;0.50;;;;;;;;;;1865668;76;26253;-32
2021/12/06 12:54:06;;;;;;;1.45;0.70;;;;;;;;;;1845160;75;26264;-33
2021/12/06 12:56:38;;;;;;;0.57;0.57;;;;;;;;;;1861730;76;26736;-33
2021/12/06 12:59:26;;;;;;;0.60;0.60;;;;;;;;;;1851890;76;26713;-32
2021/12/06 13:02:12;;;;;;;0.50;0.50;;;;;;;;;;1855074;76;26289;-32
2021/12/06 13:04:57;;;;;;;0.60;0.60;;;;;;;;;;1856496;75;26377;-34
2021/12/06 13:07:29;;;;;;;0.70;0.70;;;;;;;;;;1861095;76;26370;-32
2021/12/06 13:09:58;;;;;;;0.70;0.65;;;;;;;;;;1848087;75;26386;-35
2021/12/06 13:12:28;;;;;;;0.60;0.60;;;;;;;;;;1860120;76;26683;-34
2021/12/06 13:14:59;;;;;;;0.50;0.50;;;;;;;;;;1857229;75;26294;-32
2021/12/06 13:20:09;;;;;;;1.80;0.60;;;;;;;;;;1851727;76;26341;-35
2021/12/06 13:22:46;;;;;;;0.60;0.60;;;;;;;;;;1840087;76;26336;-35
2021/12/06 13:25:12;;;;;;;1.47;0.60;;;;;;;;;;1847828;76;26863;-30
2021/12/06 13:27:44;;;;;;;0.60;0.60;;;;;;;;;;1850355;76;26385;-31
2021/12/06 13:30:13;;;;;;;0.77;0.77;;;;;;;;;;1830856;76;28586;-35
2021/12/06 13:32:43;;;;;;;0.80;0.70;;;;;;;;;;1844042;76;26276;-33
2021/12/06 13:35:21;;;;;;;0.70;0.70;;;;;;;;;;1850446;76;26342;-36
2021/12/06 13:38:05;;;;;;;4.47;0.80;;;;;;;;;;1847924;76;26269;-34
2021/12/06 13:40:34;;;;;;;0.70;0.70;;;;;;;;;;1850198;76;26749;-34
2021/12/06 13:43:12;;;;;;;0.53;0.53;;;;;;;;;;1852042;76;26326;-35
2021/12/06 13:45:41;;;;;;;0.60;0.60;;;;;;;;;;1858156;76;26281;-31
2021/12/06 13:48:10;;;;;;;2.95;0.60;;;;;;;;;;1853478;76;26717;-35
2021/12/06 13:50:37;;;;;;;0.50;0.50;;;;;;;;;;1854762;76;26811;-37
2021/12/06 13:53:05;;;;;;;0.55;0.55;;;;;;;;;;1846677;76;26388;-36
2021/12/06 13:55:37;;;;;;;1.47;0.70;;;;;;;;;;1842406;76;26249;-33
2021/12/06 13:58:08;;;;;;;1.57;0.60;;;;;;;;;;1850654;76;26308;-36
2021/12/06 14:00:42;;;;;;;0.50;0.50;;;;;;;;;;1853264;76;26778;-33
2021/12/06 14:03:05;;;;;;;0.60;0.60;;;;;;;;;;1856310;76;26269;-31
2021/12/06 14:05:32;;;;;;;0.90;0.60;;;;;;;;;;1856306;76;26756;-31
2021/12/06 14:08:00;;;;;;;2.22;0.80;;;;;;;;;;1840905;76;26213;-29
2021/12/06 14:10:27;;;;;;;3.50;0.70;;;;;;;;;;1850882;76;26280;-35
2021/12/06 14:12:54;;;;;;;1.20;0.62;;;;;;;;;;1833526;76;26330;-32
2021/12/06 14:15:36;;;;;;;0.50;0.50;;;;;;;;;;1850324;76;26269;-33
2021/12/06 14:17:55;;;;;;;0.60;0.60;;;;;;;;;;1847146;76;27526;-33
2021/12/06 14:20:22;;;;;;;0.53;0.50;;;;;;;;;;1859803;76;27150;-33
2021/12/06 14:22:50;;;;;;;0.47;0.47;;;;;;;;;;1844162;76;26349;-31
2021/12/06 14:25:19;;;;;;;0.50;0.50;;;;;;;;;;1845982;76;26257;-32
2021/12/06 14:27:48;;;;;;;0.60;0.60;;;;;;;;;;1851618;76;26867;-32
2021/12/06 14:30:20;;;;;;;0.93;0.60;;;;;;;;;;1862396;76;26277;-38
2021/12/06 14:32:51;;;;;;;0.80;0.70;;;;;;;;;;1834090;76;29216;-35
2021/12/06 14:35:19;;;;;;;0.60;0.60;;;;;;;;;;1841048;76;26282;-32
2021/12/06 14:37:47;;;;;;;2.30;0.60;;;;;;;;;;1838524;76;26212;-36
2021/12/06 14:40:14;;;;;;;2.60;0.60;;;;;;;;;;1843498;76;26332;-34
2021/12/06 14:42:43;;;;;;;0.50;0.50;;;;;;;;;;1853357;76;26297;-33
2021/12/06 14:45:12;;;;;;;0.50;0.50;;;;;;;;;;1856811;76;26253;-31
2021/12/06 14:47:42;;;;;;;0.50;0.50;;;;;;;;;;1856683;76;26261;-34
2021/12/06 14:50:15;;;;;;;1.20;0.60;;;;;;;;;;1837697;76;28163;-34
2021/12/06 14:52:42;;;;;;;0.55;0.55;;;;;;;;;;1844648;76;26238;-32
2021/12/06 14:57:53;;;;;;;1.45;0.50;;;;;;;;;;1834116;76;26753;-31
2021/12/06 15:00:22;;;;;;;0.60;0.60;;;;;;;;;;1836874;76;26235;-34
2021/12/06 15:02:52;;;;;;;0.57;0.57;;;;;;;;;;1836535;76;26298;-34
2021/12/06 15:05:23;;;;;;;3.83;0.60;;;;;;;;;;1831558;76;28336;-33